Time;durP1;ratioP1;P1;durP2;ratioP2;P2;SDS_P1;SDS_P2;PMS_P1;PMS_P2;Temp;Humidity;BMP_temperature;BMP_pressure;BME280_temperature;BME280_humidity;BME280_pressure;Samples;Min_cycle;Max_cycle;Signal;HPM_P1;HPM_P2
2022/09/07 00:00:06;;;;;;;5.53;4.17;;;;;;;;;;5051193;28;20599;-76
2022/09/07 00:02:33;;;;;;;5.10;3.80;;;;;;;;;;5051556;28;20480;-77
2022/09/07 00:05:00;;;;;;;3.77;3.47;;;;;;;;;;5051542;28;20449;-76
2022/09/07 00:07:28;;;;;;;3.60;3.30;;;;;;;;;;5051233;28;20473;-76
2022/09/07 00:09:55;;;;;;;3.57;3.07;;;;;;;;;;5051255;28;20916;-76
2022/09/07 00:12:22;;;;;;;3.90;3.20;;;;;;;;;;5068694;28;20505;-76
2022/09/07 00:14:50;;;;;;;3.93;2.80;;;;;;;;;;5070597;28;20886;-77
2022/09/07 00:17:17;;;;;;;3.37;3.10;;;;;;;;;;5070462;28;20468;-76
2022/09/07 00:19:44;;;;;;;6.70;3.00;;;;;;;;;;5070828;28;20847;-77
2022/09/07 00:22:11;;;;;;;3.50;3.20;;;;;;;;;;5070064;28;20455;-77
2022/09/07 00:24:38;;;;;;;3.30;3.00;;;;;;;;;;5070725;28;20552;-77
2022/09/07 00:27:05;;;;;;;4.30;3.10;;;;;;;;;;5070749;28;20473;-77
2022/09/07 00:29:33;;;;;;;3.67;2.83;;;;;;;;;;5070770;28;20518;-76
2022/09/07 00:32:01;;;;;;;3.33;2.73;;;;;;;;;;5070899;28;20456;-77
2022/09/07 00:34:28;;;;;;;4.37;3.07;;;;;;;;;;5070958;28;20534;-76
2022/09/07 00:36:55;;;;;;;4.27;3.03;;;;;;;;;;5070905;28;20465;-77
2022/09/07 00:39:22;;;;;;;3.77;3.47;;;;;;;;;;5070882;28;21009;-77
2022/09/07 00:41:49;;;;;;;3.37;2.77;;;;;;;;;;5071079;28;20449;-77
2022/09/07 00:44:34;;;;;;;2.83;2.60;;;;;;;;;;5070549;28;20428;-76
2022/09/07 00:47:03;;;;;;;3.30;3.10;;;;;;;;;;5071149;28;20464;-76
2022/09/07 00:49:30;;;;;;;4.60;3.20;;;;;;;;;;5071177;28;20444;-77
2022/09/07 00:51:59;;;;;;;3.23;2.90;;;;;;;;;;5071132;28;20448;-77
2022/09/07 00:54:28;;;;;;;2.60;2.40;;;;;;;;;;5071068;28;20476;-77
2022/09/07 00:56:55;;;;;;;3.80;2.20;;;;;;;;;;5070161;28;20464;-77
2022/09/07 00:59:24;;;;;;;3.00;2.70;;;;;;;;;;5070564;28;20436;-76
2022/09/07 01:01:52;;;;;;;2.27;2.17;;;;;;;;;;5070309;28;20453;-78
2022/09/07 01:04:20;;;;;;;4.03;2.60;;;;;;;;;;5069940;28;20486;-77
2022/09/07 01:06:48;;;;;;;2.73;2.37;;;;;;;;;;5070353;28;20468;-77
2022/09/07 01:09:16;;;;;;;2.80;2.63;;;;;;;;;;5070016;28;20486;-77
2022/09/07 01:11:49;;;;;;;2.80;2.60;;;;;;;;;;5057996;28;20522;-76
2022/09/07 01:14:16;;;;;;;3.70;2.50;;;;;;;;;;5049773;28;21028;-77
2022/09/07 01:16:50;;;;;;;2.20;2.10;;;;;;;;;;5050066;28;20527;-77
2022/09/07 01:19:28;;;;;;;5.90;2.70;;;;;;;;;;5050652;28;20442;-77
2022/09/07 01:22:02;;;;;;;4.10;3.27;;;;;;;;;;5050567;28;20449;-76
2022/09/07 01:24:48;;;;;;;3.43;2.20;;;;;;;;;;5050336;28;20450;-76
2022/09/07 01:27:43;;;;;;;2.57;2.37;;;;;;;;;;5050591;28;20466;-77
2022/09/07 01:30:11;;;;;;;4.33;2.50;;;;;;;;;;5050464;28;20449;-77
2022/09/07 01:32:44;;;;;;;4.40;2.70;;;;;;;;;;5050166;28;20442;-76
2022/09/07 01:35:15;;;;;;;3.50;2.60;;;;;;;;;;5053971;28;20481;-77
2022/09/07 01:37:45;;;;;;;3.20;2.70;;;;;;;;;;5054129;28;20469;-78
2022/09/07 01:40:14;;;;;;;4.60;2.60;;;;;;;;;;5054509;28;20530;-76
2022/09/07 01:42:46;;;;;;;4.33;2.37;;;;;;;;;;5053386;28;20445;-77
2022/09/07 01:45:14;;;;;;;3.43;3.07;;;;;;;;;;5055015;28;20449;-77
2022/09/07 01:47:43;;;;;;;2.77;2.50;;;;;;;;;;5054563;28;20465;-77
2022/09/07 01:50:14;;;;;;;5.10;2.80;;;;;;;;;;5054431;28;20476;-78
2022/09/07 01:52:43;;;;;;;6.73;2.63;;;;;;;;;;5056116;28;20457;-77
2022/09/07 01:55:13;;;;;;;4.03;2.63;;;;;;;;;;5058552;28;20546;-77
2022/09/07 01:57:44;;;;;;;3.60;2.80;;;;;;;;;;5058189;28;20469;-77
2022/09/07 02:00:13;;;;;;;5.43;3.60;;;;;;;;;;5056451;28;20457;-77
2022/09/07 02:02:41;;;;;;;3.83;2.40;;;;;;;;;;5054095;28;20495;-77
2022/09/07 02:05:10;;;;;;;3.60;2.47;;;;;;;;;;5053763;28;20456;-77
2022/09/07 02:07:40;;;;;;;3.80;2.60;;;;;;;;;;5054064;28;20552;-78
2022/09/07 02:10:09;;;;;;;3.67;2.53;;;;;;;;;;5054194;28;20445;-76
2022/09/07 02:12:39;;;;;;;2.70;2.50;;;;;;;;;;5073299;28;20445;-77
2022/09/07 02:15:09;;;;;;;3.30;2.83;;;;;;;;;;5073866;28;20972;-77
2022/09/07 02:17:39;;;;;;;3.07;2.77;;;;;;;;;;5073752;28;20460;-76
2022/09/07 02:20:08;;;;;;;4.30;2.93;;;;;;;;;;5073699;28;20498;-76
2022/09/07 02:22:39;;;;;;;3.30;2.83;;;;;;;;;;5075186;28;20498;-76
2022/09/07 02:25:07;;;;;;;4.13;2.90;;;;;;;;;;5075662;28;20441;-77
2022/09/07 02:27:36;;;;;;;6.50;2.80;;;;;;;;;;5074439;28;20487;-77
2022/09/07 02:30:03;;;;;;;4.30;2.77;;;;;;;;;;5075340;28;20444;-77
2022/09/07 02:32:31;;;;;;;4.10;2.70;;;;;;;;;;5081767;28;20863;-78
2022/09/07 02:34:58;;;;;;;3.30;3.00;;;;;;;;;;5087678;28;20541;-77
2022/09/07 02:37:27;;;;;;;4.40;3.23;;;;;;;;;;5089615;28;20460;-76
2022/09/07 02:39:54;;;;;;;3.80;2.70;;;;;;;;;;5090827;28;20444;-77
2022/09/07 02:42:22;;;;;;;4.17;2.90;;;;;;;;;;5090336;28;20445;-76
2022/09/07 02:44:49;;;;;;;4.17;2.77;;;;;;;;;;5089221;28;20445;-76
2022/09/07 02:47:21;;;;;;;6.17;2.90;;;;;;;;;;5090163;28;20469;-76
2022/09/07 02:50:08;;;;;;;4.07;3.00;;;;;;;;;;5086646;28;20445;-77
2022/09/07 02:52:41;;;;;;;5.83;3.20;;;;;;;;;;5085122;28;20454;-77
2022/09/07 02:55:11;;;;;;;4.60;3.33;;;;;;;;;;5076006;28;20477;-77
2022/09/07 02:57:42;;;;;;;4.80;3.00;;;;;;;;;;5077207;28;20479;-75
2022/09/07 03:00:10;;;;;;;5.63;3.53;;;;;;;;;;5087041;28;20472;-76
2022/09/07 03:02:42;;;;;;;3.00;2.67;;;;;;;;;;5088868;28;20465;-76
2022/09/07 03:05:15;;;;;;;4.07;3.17;;;;;;;;;;5086394;28;20445;-76
2022/09/07 03:07:45;;;;;;;5.80;3.63;;;;;;;;;;5087684;28;20465;-76
2022/09/07 03:10:14;;;;;;;3.07;2.80;;;;;;;;;;5087402;28;20445;-78
2022/09/07 03:12:43;;;;;;;4.93;3.60;;;;;;;;;;5066807;28;20832;-76
2022/09/07 03:15:11;;;;;;;4.13;3.23;;;;;;;;;;5059971;28;21073;-77
2022/09/07 03:17:39;;;;;;;4.30;3.60;;;;;;;;;;5053753;28;20548;-77
2022/09/07 03:20:06;;;;;;;3.70;3.40;;;;;;;;;;5053674;28;20472;-77
2022/09/07 03:22:34;;;;;;;9.17;3.30;;;;;;;;;;5052949;28;20450;-77
2022/09/07 03:25:03;;;;;;;4.50;3.50;;;;;;;;;;5053552;28;20442;-77
2022/09/07 03:27:30;;;;;;;4.27;3.63;;;;;;;;;;5053262;28;20466;-77
2022/09/07 03:29:57;;;;;;;9.40;3.13;;;;;;;;;;5053120;28;20476;-77
2022/09/07 03:32:24;;;;;;;3.90;3.50;;;;;;;;;;5053158;28;20537;-76
2022/09/07 03:34:51;;;;;;;3.63;3.33;;;;;;;;;;5052478;28;20481;-76
2022/09/07 03:37:18;;;;;;;4.87;3.37;;;;;;;;;;5052733;28;20465;-76
2022/09/07 03:39:47;;;;;;;3.53;3.20;;;;;;;;;;5052414;28;20438;-76
2022/09/07 03:42:14;;;;;;;4.80;3.13;;;;;;;;;;5052500;28;20445;-78
2022/09/07 03:44:41;;;;;;;3.50;3.20;;;;;;;;;;5051724;28;20434;-77
2022/09/07 03:47:08;;;;;;;4.20;2.90;;;;;;;;;;5052423;28;20465;-78
2022/09/07 03:49:35;;;;;;;4.03;3.17;;;;;;;;;;5054774;28;20453;-77
2022/09/07 03:52:02;;;;;;;6.63;3.20;;;;;;;;;;5055737;28;20437;-77
2022/09/07 03:54:29;;;;;;;4.00;3.37;;;;;;;;;;5057533;28;20551;-78
2022/09/07 03:56:58;;;;;;;3.93;3.43;;;;;;;;;;5055409;28;20537;-78
2022/09/07 03:59:25;;;;;;;3.80;3.50;;;;;;;;;;5056647;28;20433;-76
2022/09/07 04:01:52;;;;;;;6.20;3.37;;;;;;;;;;5054792;28;20515;-77
2022/09/07 04:04:19;;;;;;;4.50;4.10;;;;;;;;;;5054650;28;20817;-77
2022/09/07 04:06:46;;;;;;;6.87;3.77;;;;;;;;;;5068153;28;20519;-79
2022/09/07 04:09:14;;;;;;;5.80;4.00;;;;;;;;;;5068557;28;20517;-77
2022/09/07 04:11:42;;;;;;;4.03;3.63;;;;;;;;;;5076692;28;20507;-78
2022/09/07 04:14:11;;;;;;;4.50;4.07;;;;;;;;;;5072438;28;20515;-77
2022/09/07 04:16:38;;;;;;;4.23;3.80;;;;;;;;;;5071289;28;20472;-76
2022/09/07 04:19:05;;;;;;;5.93;4.00;;;;;;;;;;5071866;28;20448;-77
2022/09/07 04:21:33;;;;;;;4.70;4.03;;;;;;;;;;5071508;28;20453;-76
2022/09/07 04:24:00;;;;;;;6.23;4.60;;;;;;;;;;5071393;28;20453;-77
2022/09/07 04:26:28;;;;;;;4.33;4.00;;;;;;;;;;5071474;28;20529;-77
2022/09/07 04:28:56;;;;;;;4.10;3.37;;;;;;;;;;5071412;28;20453;-77
2022/09/07 04:31:24;;;;;;;5.77;3.30;;;;;;;;;;5071171;28;20449;-77
2022/09/07 04:33:52;;;;;;;6.60;3.80;;;;;;;;;;5071381;28;20448;-76
2022/09/07 04:36:20;;;;;;;5.20;4.47;;;;;;;;;;5071270;28;20484;-77
2022/09/07 04:38:47;;;;;;;7.27;4.33;;;;;;;;;;5071219;28;20510;-76
2022/09/07 04:41:15;;;;;;;6.50;3.97;;;;;;;;;;5071228;28;20867;-77
2022/09/07 04:43:42;;;;;;;6.60;3.80;;;;;;;;;;5071863;28;20440;-77
2022/09/07 04:46:20;;;;;;;4.50;4.20;;;;;;;;;;5076772;28;20527;-76
2022/09/07 04:48:49;;;;;;;5.10;4.60;;;;;;;;;;5079528;28;20464;-77
2022/09/07 04:51:16;;;;;;;4.83;4.27;;;;;;;;;;5071677;28;20510;-78
2022/09/07 04:53:43;;;;;;;5.30;4.70;;;;;;;;;;5071622;28;20861;-77
2022/09/07 04:56:10;;;;;;;5.87;4.67;;;;;;;;;;5071045;28;20890;-77
2022/09/07 04:58:37;;;;;;;7.27;4.40;;;;;;;;;;5071752;28;20477;-77
2022/09/07 05:01:05;;;;;;;5.33;4.83;;;;;;;;;;5071342;28;20441;-78
2022/09/07 05:03:33;;;;;;;7.73;4.77;;;;;;;;;;5071776;28;20490;-78
2022/09/07 05:06:02;;;;;;;7.33;4.27;;;;;;;;;;5071099;28;20448;-76
2022/09/07 05:08:29;;;;;;;6.00;4.80;;;;;;;;;;5071171;28;20526;-77
2022/09/07 05:10:57;;;;;;;7.03;4.57;;;;;;;;;;5065394;28;20437;-77
2022/09/07 05:13:24;;;;;;;5.83;5.33;;;;;;;;;;5050881;28;20533;-78
2022/09/07 05:15:51;;;;;;;5.80;4.83;;;;;;;;;;5051411;28;20578;-78
2022/09/07 05:18:18;;;;;;;5.37;4.67;;;;;;;;;;5051832;28;20469;-78
2022/09/07 05:20:45;;;;;;;7.50;4.90;;;;;;;;;;5051855;28;20450;-77
2022/09/07 05:23:13;;;;;;;8.40;4.70;;;;;;;;;;5051838;28;20449;-79
2022/09/07 05:25:43;;;;;;;8.83;5.30;;;;;;;;;;5052379;28;20475;-79
2022/09/07 05:28:10;;;;;;;7.87;5.40;;;;;;;;;;5051991;28;20469;-79
2022/09/07 05:30:37;;;;;;;5.10;4.57;;;;;;;;;;5051996;28;20937;-79
2022/09/07 05:33:06;;;;;;;5.17;4.43;;;;;;;;;;5051148;28;20503;-78
2022/09/07 05:35:33;;;;;;;9.30;4.67;;;;;;;;;;5051330;28;20530;-79
2022/09/07 05:38:00;;;;;;;7.80;4.60;;;;;;;;;;5051478;28;20461;-79
2022/09/07 05:40:31;;;;;;;5.73;4.77;;;;;;;;;;5051798;28;20504;-79
2022/09/07 05:42:59;;;;;;;5.40;4.30;;;;;;;;;;5051528;28;20445;-79
2022/09/07 05:45:26;;;;;;;10.30;4.90;;;;;;;;;;5051562;28;20441;-78
2022/09/07 05:47:54;;;;;;;7.50;4.47;;;;;;;;;;5051736;28;20465;-80
2022/09/07 05:50:21;;;;;;;6.40;5.23;;;;;;;;;;5051810;28;20456;-79
2022/09/07 05:52:49;;;;;;;8.47;4.63;;;;;;;;;;5051482;28;20537;-80
2022/09/07 05:55:16;;;;;;;7.30;5.00;;;;;;;;;;5051826;28;20481;-80
2022/09/07 05:57:44;;;;;;;7.13;5.20;;;;;;;;;;5051290;28;20548;-78
2022/09/07 06:00:13;;;;;;;17.13;6.53;;;;;;;;;;5051668;28;20933;-79
2022/09/07 06:02:40;;;;;;;8.63;5.50;;;;;;;;;;5051233;28;20453;-79
2022/09/07 06:05:07;;;;;;;10.53;6.13;;;;;;;;;;5050790;28;20526;-79
2022/09/07 06:07:34;;;;;;;10.23;6.03;;;;;;;;;;5051426;28;20457;-78
2022/09/07 06:10:01;;;;;;;14.83;4.67;;;;;;;;;;5050810;28;20445;-78
2022/09/07 06:12:29;;;;;;;6.47;5.20;;;;;;;;;;5069101;28;21350;-79
2022/09/07 06:14:57;;;;;;;8.87;5.20;;;;;;;;;;5070769;28;20983;-78
2022/09/07 06:17:24;;;;;;;5.40;4.70;;;;;;;;;;5071051;28;20558;-79
2022/09/07 06:19:51;;;;;;;8.93;4.10;;;;;;;;;;5071030;28;20452;-78
2022/09/07 06:22:18;;;;;;;4.20;3.80;;;;;;;;;;5074795;28;20502;-78
2022/09/07 06:24:45;;;;;;;7.93;4.03;;;;;;;;;;5075149;28;20506;-78
2022/09/07 06:27:12;;;;;;;5.17;4.03;;;;;;;;;;5086685;28;20533;-77
2022/09/07 06:29:39;;;;;;;5.87;4.10;;;;;;;;;;5095874;28;20451;-79
2022/09/07 06:32:07;;;;;;;4.73;4.00;;;;;;;;;;5096257;28;20437;-78
2022/09/07 06:34:34;;;;;;;4.30;3.90;;;;;;;;;;5096507;28;20466;-79
2022/09/07 06:37:02;;;;;;;6.87;3.87;;;;;;;;;;5096602;28;20506;-79
2022/09/07 06:39:29;;;;;;;8.50;4.20;;;;;;;;;;5098180;28;20432;-78
2022/09/07 06:41:56;;;;;;;7.53;4.03;;;;;;;;;;5098221;28;20433;-79
2022/09/07 06:44:23;;;;;;;9.20;6.47;;;;;;;;;;5098217;28;20428;-78
2022/09/07 06:46:50;;;;;;;10.03;6.97;;;;;;;;;;5097654;28;20550;-78
2022/09/07 06:49:18;;;;;;;7.53;6.40;;;;;;;;;;5098270;28;20505;-79
2022/09/07 06:51:45;;;;;;;7.37;5.83;;;;;;;;;;5098288;28;20436;-78
2022/09/07 06:54:12;;;;;;;13.50;6.10;;;;;;;;;;5098002;28;20444;-79
2022/09/07 06:56:39;;;;;;;11.53;7.27;;;;;;;;;;5097743;28;20619;-78
2022/09/07 06:59:06;;;;;;;9.10;6.10;;;;;;;;;;5098054;28;20428;-78
2022/09/07 07:01:33;;;;;;;7.30;5.40;;;;;;;;;;5097762;28;20437;-79
2022/09/07 07:04:01;;;;;;;10.23;6.60;;;;;;;;;;5097472;28;20449;-78
2022/09/07 07:06:35;;;;;;;6.43;5.70;;;;;;;;;;5097604;28;20656;-76
2022/09/07 07:09:02;;;;;;;8.70;6.30;;;;;;;;;;5097834;28;20425;-78
2022/09/07 07:11:30;;;;;;;10.80;6.10;;;;;;;;;;5086635;28;20428;-78
2022/09/07 07:13:57;;;;;;;11.20;6.73;;;;;;;;;;5073129;28;20442;-77
2022/09/07 07:16:24;;;;;;;14.17;5.97;;;;;;;;;;5072977;28;20501;-78
2022/09/07 07:18:54;;;;;;;12.17;6.03;;;;;;;;;;5075220;28;20464;-78
2022/09/07 07:21:22;;;;;;;9.10;5.50;;;;;;;;;;5057918;28;20477;-78
2022/09/07 07:23:51;;;;;;;9.03;5.10;;;;;;;;;;5055757;28;20545;-78
2022/09/07 07:26:19;;;;;;;8.20;5.20;;;;;;;;;;5054801;28;20963;-79
2022/09/07 07:28:47;;;;;;;6.10;5.40;;;;;;;;;;5054253;28;20480;-82
2022/09/07 07:31:15;;;;;;;10.70;5.60;;;;;;;;;;5053513;28;20454;-78
2022/09/07 07:33:42;;;;;;;11.00;4.83;;;;;;;;;;5052708;28;20453;-78
2022/09/07 07:36:10;;;;;;;5.80;4.73;;;;;;;;;;5053214;28;20485;-78
2022/09/07 07:38:37;;;;;;;6.10;4.50;;;;;;;;;;5052710;28;20988;-78
2022/09/07 07:41:06;;;;;;;4.17;3.77;;;;;;;;;;5052779;28;20445;-78
2022/09/07 07:43:33;;;;;;;6.17;2.90;;;;;;;;;;5053256;28;20536;-78
2022/09/07 07:46:00;;;;;;;10.87;4.60;;;;;;;;;;5052599;28;20449;-78
2022/09/07 07:48:27;;;;;;;6.60;4.50;;;;;;;;;;5052263;28;20917;-77
2022/09/07 07:50:58;;;;;;;4.33;3.37;;;;;;;;;;5052048;28;20456;-78
2022/09/07 07:53:25;;;;;;;5.67;2.93;;;;;;;;;;5052107;28;20484;-78
2022/09/07 07:55:52;;;;;;;5.43;3.70;;;;;;;;;;5052298;28;20477;-78
2022/09/07 07:58:21;;;;;;;4.67;3.33;;;;;;;;;;5052312;28;20461;-77
2022/09/07 08:00:48;;;;;;;5.50;3.13;;;;;;;;;;5052127;28;20481;-78
2022/09/07 08:03:15;;;;;;;5.77;3.60;;;;;;;;;;5051790;28;20449;-77
2022/09/07 08:05:42;;;;;;;3.27;3.07;;;;;;;;;;5051592;28;20445;-78
2022/09/07 08:08:10;;;;;;;5.90;2.97;;;;;;;;;;5051858;28;20470;-78
2022/09/07 08:10:37;;;;;;;5.73;3.30;;;;;;;;;;5054734;28;20936;-78
2022/09/07 08:13:04;;;;;;;4.50;3.83;;;;;;;;;;5071795;28;20495;-79
2022/09/07 08:15:34;;;;;;;4.93;2.90;;;;;;;;;;5072014;28;20995;-78
2022/09/07 08:18:01;;;;;;;5.77;3.00;;;;;;;;;;5071998;28;20464;-78
2022/09/07 08:23:10;;;;;;;3.47;2.90;;;;;;;;;;5071318;28;20460;-77
2022/09/07 08:25:37;;;;;;;6.10;3.40;;;;;;;;;;5072882;28;20539;-77
2022/09/07 08:28:04;;;;;;;9.90;3.00;;;;;;;;;;5071794;28;20464;-78
2022/09/07 08:30:32;;;;;;;6.53;3.20;;;;;;;;;;5071548;28;20441;-77
2022/09/07 08:32:59;;;;;;;8.20;3.00;;;;;;;;;;5071027;28;20506;-78
2022/09/07 08:35:27;;;;;;;5.33;2.70;;;;;;;;;;5071579;28;20441;-77
2022/09/07 08:37:54;;;;;;;4.50;3.00;;;;;;;;;;5071105;28;20473;-77
2022/09/07 08:40:21;;;;;;;4.67;3.07;;;;;;;;;;5071193;28;20510;-77
2022/09/07 08:42:56;;;;;;;7.30;2.97;;;;;;;;;;5070173;28;20884;-77
2022/09/07 08:45:26;;;;;;;8.30;3.30;;;;;;;;;;5070739;28;20444;-79
2022/09/07 08:47:55;;;;;;;5.30;2.80;;;;;;;;;;5070754;28;20469;-78
2022/09/07 08:50:24;;;;;;;8.83;3.20;;;;;;;;;;5071626;28;20444;-78
2022/09/07 08:52:54;;;;;;;5.17;3.00;;;;;;;;;;5071003;28;20502;-78
2022/09/07 08:55:26;;;;;;;6.10;3.10;;;;;;;;;;5070789;28;20455;-78
2022/09/07 08:57:56;;;;;;;5.23;2.93;;;;;;;;;;5070528;28;20545;-77
2022/09/07 09:00:23;;;;;;;7.67;3.30;;;;;;;;;;5071281;28;20448;-78
2022/09/07 09:02:50;;;;;;;5.00;2.93;;;;;;;;;;5070732;28;20514;-78
2022/09/07 09:05:22;;;;;;;5.50;3.27;;;;;;;;;;5070454;28;20529;-78
2022/09/07 09:07:53;;;;;;;2.63;2.40;;;;;;;;;;5070212;28;20557;-78
2022/09/07 09:10:23;;;;;;;4.07;2.97;;;;;;;;;;5074760;28;20452;-78
2022/09/07 09:12:58;;;;;;;3.80;2.80;;;;;;;;;;5055361;28;20515;-78
2022/09/07 09:15:30;;;;;;;6.30;2.90;;;;;;;;;;5055356;28;20437;-78
2022/09/07 09:18:00;;;;;;;7.23;2.90;;;;;;;;;;5053733;28;20461;-77
2022/09/07 09:20:31;;;;;;;2.73;2.53;;;;;;;;;;5050971;28;21012;-78
2022/09/07 09:23:11;;;;;;;3.20;2.77;;;;;;;;;;5050410;28;20545;-78
2022/09/07 09:25:40;;;;;;;8.57;2.63;;;;;;;;;;5050823;28;20441;-77
2022/09/07 09:28:10;;;;;;;3.60;2.67;;;;;;;;;;5050969;28;20466;-78
2022/09/07 09:30:37;;;;;;;4.47;2.47;;;;;;;;;;5050622;28;20469;-78
2022/09/07 09:33:14;;;;;;;5.03;2.70;;;;;;;;;;5050628;28;20454;-77
2022/09/07 09:35:43;;;;;;;4.77;2.50;;;;;;;;;;5050512;28;20448;-77
2022/09/07 09:38:29;;;;;;;5.50;2.67;;;;;;;;;;5050402;28;20507;-77
2022/09/07 09:40:57;;;;;;;3.30;2.90;;;;;;;;;;5050686;28;20449;-77
2022/09/07 09:43:25;;;;;;;5.60;2.83;;;;;;;;;;5050370;28;20503;-78
2022/09/07 09:45:54;;;;;;;5.67;3.03;;;;;;;;;;5050132;28;20453;-79
2022/09/07 09:48:23;;;;;;;9.50;3.07;;;;;;;;;;5051236;28;20628;-78
2022/09/07 09:50:53;;;;;;;4.57;2.40;;;;;;;;;;5051822;28;20445;-77
2022/09/07 09:53:25;;;;;;;6.77;2.80;;;;;;;;;;5052186;28;20445;-77
2022/09/07 09:55:53;;;;;;;12.83;3.47;;;;;;;;;;5053036;28;20826;-77
2022/09/07 09:58:28;;;;;;;4.03;2.93;;;;;;;;;;5061538;28;20462;-78
2022/09/07 10:00:57;;;;;;;5.67;2.87;;;;;;;;;;5061353;28;20448;-78
2022/09/07 10:03:26;;;;;;;4.83;3.20;;;;;;;;;;5057987;28;20437;-77
2022/09/07 10:05:54;;;;;;;5.17;2.73;;;;;;;;;;5056307;28;20824;-79
2022/09/07 10:08:24;;;;;;;4.57;2.83;;;;;;;;;;5054881;28;20473;-77
2022/09/07 10:10:52;;;;;;;4.03;3.17;;;;;;;;;;5059484;28;20441;-78
2022/09/07 10:13:21;;;;;;;3.27;2.60;;;;;;;;;;5075029;28;20448;-78
2022/09/07 10:15:51;;;;;;;4.80;3.00;;;;;;;;;;5075112;28;20445;-78
2022/09/07 10:18:20;;;;;;;3.07;2.47;;;;;;;;;;5078362;28;20901;-79
2022/09/07 10:20:47;;;;;;;4.33;2.60;;;;;;;;;;5077509;28;20793;-78
2022/09/07 10:23:29;;;;;;;7.60;3.17;;;;;;;;;;5075628;28;20448;-78
2022/09/07 10:25:56;;;;;;;3.43;2.70;;;;;;;;;;5074118;28;20441;-78
2022/09/07 10:28:30;;;;;;;6.93;3.10;;;;;;;;;;5074269;28;20464;-78
2022/09/07 10:31:03;;;;;;;6.20;2.90;;;;;;;;;;5074770;28;20703;-78
2022/09/07 10:33:34;;;;;;;3.87;2.80;;;;;;;;;;5073382;28;20456;-77
2022/09/07 10:36:07;;;;;;;5.97;2.20;;;;;;;;;;5073385;28;20497;-77
2022/09/07 10:38:39;;;;;;;3.53;2.60;;;;;;;;;;5073631;28;20539;-78
2022/09/07 10:41:07;;;;;;;6.30;3.00;;;;;;;;;;5073506;28;20437;-78
2022/09/07 10:43:40;;;;;;;7.23;3.30;;;;;;;;;;5073308;28;20441;-78
2022/09/07 10:46:12;;;;;;;4.67;2.93;;;;;;;;;;5073821;28;20445;-79
2022/09/07 10:48:44;;;;;;;4.87;3.60;;;;;;;;;;5073656;28;20499;-78
2022/09/07 10:51:14;;;;;;;7.23;2.60;;;;;;;;;;5073780;28;20453;-78
2022/09/07 10:53:43;;;;;;;3.70;3.37;;;;;;;;;;5073048;28;20952;-78
2022/09/07 10:56:11;;;;;;;6.97;3.60;;;;;;;;;;5073613;28;20449;-77
2022/09/07 10:58:53;;;;;;;5.07;3.40;;;;;;;;;;5074167;28;20541;-77
2022/09/07 11:01:25;;;;;;;4.40;3.50;;;;;;;;;;5070863;28;20876;-77
2022/09/07 11:03:57;;;;;;;13.90;3.20;;;;;;;;;;5073010;28;20944;-78
2022/09/07 11:06:28;;;;;;;5.30;3.10;;;;;;;;;;5072447;28;20456;-78
2022/09/07 11:09:16;;;;;;;4.70;3.23;;;;;;;;;;5072535;28;20810;-78
2022/09/07 11:11:45;;;;;;;3.20;2.90;;;;;;;;;;5060973;28;20449;-78
2022/09/07 11:14:15;;;;;;;8.57;4.40;;;;;;;;;;5053373;28;20504;-78
2022/09/07 11:16:48;;;;;;;5.30;3.63;;;;;;;;;;5054307;28;20485;-78
2022/09/07 11:19:16;;;;;;;3.90;2.90;;;;;;;;;;5054685;28;20464;-79
2022/09/07 11:21:48;;;;;;;4.20;2.80;;;;;;;;;;5053652;28;20450;-78
2022/09/07 11:24:22;;;;;;;5.23;2.90;;;;;;;;;;5053358;28;20850;-79
2022/09/07 11:26:52;;;;;;;8.07;2.50;;;;;;;;;;5053304;28;20511;-78
2022/09/07 11:29:22;;;;;;;5.67;2.90;;;;;;;;;;5052909;28;20449;-77
2022/09/07 11:31:51;;;;;;;4.67;2.63;;;;;;;;;;5053016;28;20457;-79
2022/09/07 11:34:20;;;;;;;3.07;2.70;;;;;;;;;;5052593;28;20503;-78
2022/09/07 11:36:51;;;;;;;3.83;2.77;;;;;;;;;;5052949;28;20592;-78
2022/09/07 11:39:24;;;;;;;3.23;2.93;;;;;;;;;;5052411;28;20492;-79
2022/09/07 11:41:56;;;;;;;5.80;2.93;;;;;;;;;;5052234;28;20953;-78
2022/09/07 11:44:26;;;;;;;2.90;2.53;;;;;;;;;;5051597;28;20956;-78
2022/09/07 11:46:54;;;;;;;5.07;3.10;;;;;;;;;;5052517;28;20461;-79
2022/09/07 11:49:23;;;;;;;4.00;3.00;;;;;;;;;;5052604;28;20488;-79
2022/09/07 11:51:53;;;;;;;4.70;2.80;;;;;;;;;;5052776;28;20492;-78
2022/09/07 11:54:27;;;;;;;3.67;2.50;;;;;;;;;;5051818;28;20445;-78
2022/09/07 11:56:57;;;;;;;6.30;3.10;;;;;;;;;;5051550;28;21007;-78
2022/09/07 11:59:39;;;;;;;7.73;2.87;;;;;;;;;;5051677;28;20445;-77
2022/09/07 12:02:17;;;;;;;3.30;2.67;;;;;;;;;;5052730;28;20445;-78
2022/09/07 12:04:48;;;;;;;2.77;2.40;;;;;;;;;;5051875;28;20445;-78
2022/09/07 12:07:31;;;;;;;4.13;3.10;;;;;;;;;;5052651;28;20470;-79
2022/09/07 12:10:22;;;;;;;4.40;2.90;;;;;;;;;;5051478;28;20929;-78
2022/09/07 12:12:56;;;;;;;4.30;2.73;;;;;;;;;;5045786;28;20575;-79
2022/09/07 12:15:30;;;;;;;3.00;2.80;;;;;;;;;;5051447;28;20805;-78
2022/09/07 12:18:04;;;;;;;4.13;2.17;;;;;;;;;;5050599;28;21029;-77
2022/09/07 12:20:39;;;;;;;2.77;2.00;;;;;;;;;;5051611;28;20940;-78
2022/09/07 12:23:07;;;;;;;4.20;2.47;;;;;;;;;;5051888;28;20507;-78
2022/09/07 12:25:34;;;;;;;4.30;2.57;;;;;;;;;;5051894;28;20786;-78
2022/09/07 12:28:03;;;;;;;3.43;2.70;;;;;;;;;;5052866;28;20473;-77
2022/09/07 12:30:51;;;;;;;6.03;2.90;;;;;;;;;;5053045;28;20452;-78
2022/09/07 12:33:20;;;;;;;9.93;2.57;;;;;;;;;;5053344;28;20516;-78
2022/09/07 12:35:47;;;;;;;3.23;2.33;;;;;;;;;;5054052;28;20499;-78
2022/09/07 12:38:34;;;;;;;3.77;2.70;;;;;;;;;;5053423;28;20481;-78
2022/09/07 12:41:02;;;;;;;4.57;2.20;;;;;;;;;;5051630;28;20437;-78
2022/09/07 12:43:53;;;;;;;3.00;2.20;;;;;;;;;;5051413;28;20491;-78
2022/09/07 12:46:35;;;;;;;4.47;1.93;;;;;;;;;;5051893;28;20929;-78
2022/09/07 12:49:09;;;;;;;5.83;2.43;;;;;;;;;;5038989;28;20960;-79
2022/09/07 12:51:37;;;;;;;4.00;2.23;;;;;;;;;;5052541;28;20430;-79
2022/09/07 12:54:08;;;;;;;4.00;2.23;;;;;;;;;;5052736;28;20933;-78
2022/09/07 12:56:42;;;;;;;3.97;2.40;;;;;;;;;;5052206;28;20445;-79
2022/09/07 12:59:27;;;;;;;3.43;2.10;;;;;;;;;;5051985;28;20928;-78
2022/09/07 13:01:57;;;;;;;3.67;2.60;;;;;;;;;;5051713;28;20499;-78
2022/09/07 13:04:46;;;;;;;2.40;1.90;;;;;;;;;;5052502;28;20445;-78
2022/09/07 13:07:24;;;;;;;2.43;2.10;;;;;;;;;;5055159;28;20988;-79
2022/09/07 13:09:55;;;;;;;4.53;2.10;;;;;;;;;;5052415;28;20967;-78
2022/09/07 13:12:30;;;;;;;2.40;2.07;;;;;;;;;;5051169;28;20579;-78
2022/09/07 13:14:57;;;;;;;2.83;2.60;;;;;;;;;;5051127;28;20494;-78
2022/09/07 13:17:41;;;;;;;3.77;2.20;;;;;;;;;;5050858;28;20480;-79
2022/09/07 13:20:22;;;;;;;4.50;2.10;;;;;;;;;;5050288;28;20823;-78
2022/09/07 13:22:56;;;;;;;4.10;2.13;;;;;;;;;;5050496;28;20579;-78
2022/09/07 13:25:44;;;;;;;5.93;2.20;;;;;;;;;;5051987;28;20449;-78
2022/09/07 13:28:16;;;;;;;2.73;2.00;;;;;;;;;;5055979;28;20462;-79
2022/09/07 13:30:52;;;;;;;2.87;1.93;;;;;;;;;;5057052;28;20514;-78
2022/09/07 13:33:37;;;;;;;2.43;2.10;;;;;;;;;;5055181;28;20854;-78
2022/09/07 13:36:06;;;;;;;3.00;2.10;;;;;;;;;;5055165;28;20445;-78
2022/09/07 13:38:35;;;;;;;2.50;1.70;;;;;;;;;;5055126;28;20493;-79
2022/09/07 13:41:06;;;;;;;3.73;2.13;;;;;;;;;;5055115;28;20456;-79
2022/09/07 13:43:35;;;;;;;2.37;2.10;;;;;;;;;;5055202;28;20790;-78
2022/09/07 13:46:04;;;;;;;2.53;1.83;;;;;;;;;;5054450;28;20522;-79
2022/09/07 13:48:34;;;;;;;2.90;2.00;;;;;;;;;;5054545;28;20526;-78
2022/09/07 13:51:05;;;;;;;2.30;2.10;;;;;;;;;;5054624;28;20784;-78
2022/09/07 13:53:39;;;;;;;3.30;1.60;;;;;;;;;;5054290;28;20921;-79
2022/09/07 13:56:10;;;;;;;3.63;1.80;;;;;;;;;;5054005;28;20514;-78
2022/09/07 13:58:40;;;;;;;4.63;3.97;;;;;;;;;;5054116;28;20879;-79
2022/09/07 14:01:14;;;;;;;3.13;1.90;;;;;;;;;;5054478;28;20453;-78
2022/09/07 14:03:46;;;;;;;3.23;1.80;;;;;;;;;;5053901;28;20455;-79
2022/09/07 14:06:14;;;;;;;5.23;1.90;;;;;;;;;;5053731;28;20449;-79
2022/09/07 14:08:47;;;;;;;2.00;1.83;;;;;;;;;;5054912;28;20496;-79
2022/09/07 14:11:18;;;;;;;1.73;1.63;;;;;;;;;;5057616;28;20665;-78
2022/09/07 14:13:45;;;;;;;2.20;2.00;;;;;;;;;;5060015;28;20866;-77
2022/09/07 14:16:12;;;;;;;2.27;1.70;;;;;;;;;;5056653;28;20442;-78
2022/09/07 14:18:40;;;;;;;2.00;1.80;;;;;;;;;;5057418;28;20496;-79
2022/09/07 14:21:08;;;;;;;2.60;2.10;;;;;;;;;;5054023;28;20445;-78
2022/09/07 14:23:38;;;;;;;3.90;2.00;;;;;;;;;;5054350;28;20438;-78
2022/09/07 14:26:14;;;;;;;2.93;1.73;;;;;;;;;;5054225;28;20456;-79
2022/09/07 14:28:41;;;;;;;2.30;2.10;;;;;;;;;;5055494;28;20461;-79
2022/09/07 14:31:10;;;;;;;4.70;2.00;;;;;;;;;;5053849;28;20463;-79
2022/09/07 14:33:37;;;;;;;2.13;1.90;;;;;;;;;;5053964;28;20434;-79
2022/09/07 14:36:05;;;;;;;4.20;1.83;;;;;;;;;;5054301;28;20449;-78
2022/09/07 14:38:33;;;;;;;2.47;2.07;;;;;;;;;;5053273;28;20488;-78
2022/09/07 14:41:01;;;;;;;3.33;2.50;;;;;;;;;;5052289;28;20769;-78
2022/09/07 14:43:31;;;;;;;3.03;2.20;;;;;;;;;;5053970;28;20452;-78
2022/09/07 14:46:14;;;;;;;2.47;1.90;;;;;;;;;;5053418;28;20445;-79
2022/09/07 14:48:42;;;;;;;2.37;1.73;;;;;;;;;;5053962;28;20491;-77
2022/09/07 14:51:09;;;;;;;4.20;1.90;;;;;;;;;;5054039;28;20472;-77
2022/09/07 14:53:36;;;;;;;5.43;2.40;;;;;;;;;;5053911;28;20526;-78
2022/09/07 14:56:08;;;;;;;1.80;1.70;;;;;;;;;;5055370;28;20453;-78
2022/09/07 14:58:36;;;;;;;2.90;2.30;;;;;;;;;;5059955;28;20477;-78
2022/09/07 15:01:10;;;;;;;2.93;2.03;;;;;;;;;;5057445;28;20442;-76